sensor_id;sensor_type;location;lat;lon;timestamp;P1;durP1;ratioP1;P2;durP2;ratioP2
7110;SDS011;3597;42.650;23.386;2023-08-06T00:01:25;9.17;;;8.87;;
7110;SDS011;3597;42.650;23.386;2023-08-06T00:03:51;11.50;;;11.23;;
7110;SDS011;3597;42.650;23.386;2023-08-06T00:06:16;9.43;;;9.23;;
7110;SDS011;3597;42.650;23.386;2023-08-06T00:08:42;9.30;;;9.10;;
7110;SDS011;3597;42.650;23.386;2023-08-06T00:11:07;7.10;;;6.87;;
7110;SDS011;3597;42.650;23.386;2023-08-06T00:13:32;5.83;;;5.67;;
7110;SDS011;3597;42.650;23.386;2023-08-06T00:16:13;5.33;;;5.23;;
7110;SDS011;3597;42.650;23.386;2023-08-06T00:18:39;3.87;;;3.87;;
7110;SDS011;3597;42.650;23.386;2023-08-06T00:21:04;4.37;;;4.27;;
7110;SDS011;3597;42.650;23.386;2023-08-06T00:23:30;3.93;;;3.93;;
7110;SDS011;3597;42.650;23.386;2023-08-06T00:25:55;3.77;;;3.67;;
7110;SDS011;3597;42.650;23.386;2023-08-06T00:28:20;5.07;;;4.77;;
7110;SDS011;3597;42.650;23.386;2023-08-06T00:30:46;3.80;;;3.80;;
7110;SDS011;3597;42.650;23.386;2023-08-06T00:33:11;4.27;;;4.17;;
7110;SDS011;3597;42.650;23.386;2023-08-06T00:35:36;5.33;;;5.23;;
7110;SDS011;3597;42.650;23.386;2023-08-06T00:38:02;5.33;;;5.20;;
7110;SDS011;3597;42.650;23.386;2023-08-06T00:40:27;6.37;;;6.27;;
7110;SDS011;3597;42.650;23.386;2023-08-06T00:42:55;4.50;;;4.40;;
7110;SDS011;3597;42.650;23.386;2023-08-06T00:45:20;3.93;;;3.90;;
7110;SDS011;3597;42.650;23.386;2023-08-06T00:47:47;3.60;;;3.50;;
7110;SDS011;3597;42.650;23.386;2023-08-06T00:50:12;3.17;;;3.17;;
7110;SDS011;3597;42.650;23.386;2023-08-06T00:52:38;2.60;;;2.60;;
7110;SDS011;3597;42.650;23.386;2023-08-06T00:55:03;2.83;;;2.83;;
7110;SDS011;3597;42.650;23.386;2023-08-06T00:57:29;3.77;;;3.70;;
7110;SDS011;3597;42.650;23.386;2023-08-06T00:59:54;3.90;;;3.80;;
7110;SDS011;3597;42.650;23.386;2023-08-06T01:02:20;3.87;;;3.77;;
7110;SDS011;3597;42.650;23.386;2023-08-06T01:04:45;2.63;;;2.53;;
7110;SDS011;3597;42.650;23.386;2023-08-06T01:12:59;2.83;;;2.83;;
7110;SDS011;3597;42.650;23.386;2023-08-06T01:15:38;3.10;;;3.00;;
7110;SDS011;3597;42.650;23.386;2023-08-06T01:18:06;2.70;;;2.63;;
7110;SDS011;3597;42.650;23.386;2023-08-06T01:20:32;2.87;;;2.87;;
7110;SDS011;3597;42.650;23.386;2023-08-06T01:22:58;3.53;;;3.47;;
7110;SDS011;3597;42.650;23.386;2023-08-06T01:25:26;3.30;;;3.20;;
7110;SDS011;3597;42.650;23.386;2023-08-06T01:27:56;2.90;;;2.90;;
7110;SDS011;3597;42.650;23.386;2023-08-06T01:30:27;2.50;;;2.50;;
7110;SDS011;3597;42.650;23.386;2023-08-06T01:32:57;2.90;;;2.80;;
7110;SDS011;3597;42.650;23.386;2023-08-06T01:35:24;3.33;;;3.30;;
7110;SDS011;3597;42.650;23.386;2023-08-06T01:37:50;3.77;;;3.67;;
7110;SDS011;3597;42.650;23.386;2023-08-06T01:40:16;4.10;;;4.00;;
7110;SDS011;3597;42.650;23.386;2023-08-06T01:42:41;4.50;;;4.40;;
7110;SDS011;3597;42.650;23.386;2023-08-06T01:45:07;5.17;;;5.07;;
7110;SDS011;3597;42.650;23.386;2023-08-06T01:47:33;5.67;;;5.57;;
7110;SDS011;3597;42.650;23.386;2023-08-06T01:49:58;5.27;;;5.17;;
7110;SDS011;3597;42.650;23.386;2023-08-06T01:52:23;5.70;;;5.60;;
7110;SDS011;3597;42.650;23.386;2023-08-06T01:54:49;5.93;;;5.83;;
7110;SDS011;3597;42.650;23.386;2023-08-06T01:57:14;5.23;;;5.13;;
7110;SDS011;3597;42.650;23.386;2023-08-06T01:59:40;4.67;;;4.57;;
7110;SDS011;3597;42.650;23.386;2023-08-06T02:02:05;4.47;;;4.37;;
7110;SDS011;3597;42.650;23.386;2023-08-06T02:04:30;4.60;;;4.50;;
7110;SDS011;3597;42.650;23.386;2023-08-06T02:06:56;4.93;;;4.83;;
7110;SDS011;3597;42.650;23.386;2023-08-06T02:09:21;4.70;;;4.60;;
7110;SDS011;3597;42.650;23.386;2023-08-06T02:11:46;5.23;;;5.13;;
7110;SDS011;3597;42.650;23.386;2023-08-06T02:14:12;6.10;;;6.00;;
7110;SDS011;3597;42.650;23.386;2023-08-06T02:16:37;7.33;;;7.13;;
7110;SDS011;3597;42.650;23.386;2023-08-06T02:19:02;7.67;;;7.47;;
7110;SDS011;3597;42.650;23.386;2023-08-06T02:21:28;7.73;;;7.57;;
7110;SDS011;3597;42.650;23.386;2023-08-06T02:23:53;8.97;;;8.77;;
7110;SDS011;3597;42.650;23.386;2023-08-06T02:26:18;8.37;;;8.17;;
7110;SDS011;3597;42.650;23.386;2023-08-06T02:28:44;7.70;;;7.50;;
7110;SDS011;3597;42.650;23.386;2023-08-06T02:31:09;6.30;;;6.20;;
7110;SDS011;3597;42.650;23.386;2023-08-06T02:33:34;4.43;;;4.33;;
7110;SDS011;3597;42.650;23.386;2023-08-06T02:36:00;5.40;;;5.30;;
7110;SDS011;3597;42.650;23.386;2023-08-06T02:38:27;4.83;;;4.73;;
7110;SDS011;3597;42.650;23.386;2023-08-06T02:40:52;4.40;;;4.30;;
7110;SDS011;3597;42.650;23.386;2023-08-06T02:43:17;3.13;;;3.13;;
7110;SDS011;3597;42.650;23.386;2023-08-06T02:45:43;2.73;;;2.73;;
7110;SDS011;3597;42.650;23.386;2023-08-06T02:48:08;2.80;;;2.80;;
7110;SDS011;3597;42.650;23.386;2023-08-06T02:50:40;3.20;;;3.10;;
7110;SDS011;3597;42.650;23.386;2023-08-06T02:53:06;2.70;;;2.70;;
7110;SDS011;3597;42.650;23.386;2023-08-06T02:55:34;2.43;;;2.33;;
7110;SDS011;3597;42.650;23.386;2023-08-06T02:58:00;2.50;;;2.50;;
7110;SDS011;3597;42.650;23.386;2023-08-06T03:00:26;2.17;;;2.17;;
7110;SDS011;3597;42.650;23.386;2023-08-06T03:02:52;2.30;;;2.20;;
7110;SDS011;3597;42.650;23.386;2023-08-06T03:05:17;2.00;;;2.00;;
7110;SDS011;3597;42.650;23.386;2023-08-06T03:07:43;2.10;;;2.10;;
7110;SDS011;3597;42.650;23.386;2023-08-06T03:10:08;2.70;;;2.60;;
7110;SDS011;3597;42.650;23.386;2023-08-06T03:12:34;2.87;;;2.77;;
7110;SDS011;3597;42.650;23.386;2023-08-06T03:14:59;3.27;;;3.17;;
7110;SDS011;3597;42.650;23.386;2023-08-06T03:17:25;3.00;;;3.00;;
7110;SDS011;3597;42.650;23.386;2023-08-06T03:19:50;4.27;;;2.93;;
7110;SDS011;3597;42.650;23.386;2023-08-06T03:22:15;4.83;;;4.73;;
7110;SDS011;3597;42.650;23.386;2023-08-06T03:24:41;3.00;;;2.97;;
7110;SDS011;3597;42.650;23.386;2023-08-06T03:27:06;2.97;;;2.93;;
7110;SDS011;3597;42.650;23.386;2023-08-06T03:29:31;2.90;;;2.90;;
7110;SDS011;3597;42.650;23.386;2023-08-06T03:31:57;3.07;;;3.07;;
7110;SDS011;3597;42.650;23.386;2023-08-06T03:34:22;3.47;;;3.37;;
7110;SDS011;3597;42.650;23.386;2023-08-06T03:36:47;3.13;;;3.13;;
7110;SDS011;3597;42.650;23.386;2023-08-06T03:39:13;2.73;;;2.73;;
7110;SDS011;3597;42.650;23.386;2023-08-06T03:41:39;2.93;;;2.83;;
7110;SDS011;3597;42.650;23.386;2023-08-06T03:44:04;2.40;;;2.40;;
7110;SDS011;3597;42.650;23.386;2023-08-06T03:46:30;2.63;;;2.60;;
7110;SDS011;3597;42.650;23.386;2023-08-06T03:48:59;2.20;;;2.20;;
7110;SDS011;3597;42.650;23.386;2023-08-06T03:51:25;2.40;;;2.40;;
7110;SDS011;3597;42.650;23.386;2023-08-06T03:53:50;2.50;;;2.40;;
7110;SDS011;3597;42.650;23.386;2023-08-06T03:56:15;2.20;;;2.20;;
7110;SDS011;3597;42.650;23.386;2023-08-06T03:58:41;2.20;;;2.20;;
7110;SDS011;3597;42.650;23.386;2023-08-06T04:01:06;2.57;;;2.40;;
7110;SDS011;3597;42.650;23.386;2023-08-06T04:03:32;2.63;;;2.53;;
7110;SDS011;3597;42.650;23.386;2023-08-06T04:05:57;2.20;;;2.20;;
7110;SDS011;3597;42.650;23.386;2023-08-06T04:08:22;2.80;;;2.70;;
7110;SDS011;3597;42.650;23.386;2023-08-06T04:10:51;2.53;;;2.43;;
7110;SDS011;3597;42.650;23.386;2023-08-06T04:13:17;2.70;;;2.60;;
7110;SDS011;3597;42.650;23.386;2023-08-06T04:15:42;2.53;;;2.53;;
7110;SDS011;3597;42.650;23.386;2023-08-06T04:18:08;2.80;;;2.80;;
7110;SDS011;3597;42.650;23.386;2023-08-06T04:20:33;3.20;;;3.20;;
7110;SDS011;3597;42.650;23.386;2023-08-06T04:22:58;3.80;;;3.70;;
7110;SDS011;3597;42.650;23.386;2023-08-06T04:25:24;3.90;;;3.90;;
7110;SDS011;3597;42.650;23.386;2023-08-06T04:27:49;3.33;;;3.33;;
7110;SDS011;3597;42.650;23.386;2023-08-06T04:30:15;3.60;;;3.60;;
7110;SDS011;3597;42.650;23.386;2023-08-06T04:32:40;4.47;;;4.37;;
7110;SDS011;3597;42.650;23.386;2023-08-06T04:35:06;5.37;;;5.27;;
7110;SDS011;3597;42.650;23.386;2023-08-06T04:37:31;3.93;;;3.73;;
7110;SDS011;3597;42.650;23.386;2023-08-06T04:39:57;4.20;;;4.10;;
7110;SDS011;3597;42.650;23.386;2023-08-06T04:42:22;4.07;;;3.97;;
7110;SDS011;3597;42.650;23.386;2023-08-06T04:44:47;3.90;;;3.80;;
7110;SDS011;3597;42.650;23.386;2023-08-06T04:47:13;4.43;;;4.33;;
7110;SDS011;3597;42.650;23.386;2023-08-06T04:49:38;4.53;;;4.43;;
7110;SDS011;3597;42.650;23.386;2023-08-06T04:52:03;5.27;;;5.13;;
7110;SDS011;3597;42.650;23.386;2023-08-06T04:54:29;5.97;;;5.77;;
7110;SDS011;3597;42.650;23.386;2023-08-06T04:56:54;6.63;;;6.53;;
7110;SDS011;3597;42.650;23.386;2023-08-06T04:59:20;6.47;;;6.37;;
7110;SDS011;3597;42.650;23.386;2023-08-06T05:01:45;7.20;;;6.93;;
7110;SDS011;3597;42.650;23.386;2023-08-06T05:04:10;6.90;;;6.80;;
7110;SDS011;3597;42.650;23.386;2023-08-06T05:06:36;6.37;;;6.17;;
7110;SDS011;3597;42.650;23.386;2023-08-06T05:09:03;6.23;;;6.13;;
7110;SDS011;3597;42.650;23.386;2023-08-06T05:11:29;18.73;;;18.07;;
7110;SDS011;3597;42.650;23.386;2023-08-06T05:13:54;6.50;;;6.30;;
7110;SDS011;3597;42.650;23.386;2023-08-06T05:16:20;6.47;;;6.37;;
7110;SDS011;3597;42.650;23.386;2023-08-06T05:18:45;7.17;;;7.07;;
7110;SDS011;3597;42.650;23.386;2023-08-06T05:21:11;8.83;;;8.63;;
7110;SDS011;3597;42.650;23.386;2023-08-06T05:23:36;8.40;;;8.20;;
7110;SDS011;3597;42.650;23.386;2023-08-06T05:26:01;7.30;;;7.20;;
7110;SDS011;3597;42.650;23.386;2023-08-06T05:28:27;7.13;;;6.93;;
7110;SDS011;3597;42.650;23.386;2023-08-06T05:30:52;7.57;;;7.13;;
7110;SDS011;3597;42.650;23.386;2023-08-06T05:33:18;6.43;;;6.33;;
7110;SDS011;3597;42.650;23.386;2023-08-06T05:35:43;7.00;;;6.83;;
7110;SDS011;3597;42.650;23.386;2023-08-06T05:38:08;7.10;;;6.83;;
7110;SDS011;3597;42.650;23.386;2023-08-06T05:40:34;6.43;;;6.33;;
7110;SDS011;3597;42.650;23.386;2023-08-06T05:42:59;5.13;;;5.03;;
7110;SDS011;3597;42.650;23.386;2023-08-06T05:45:25;5.70;;;4.30;;
7110;SDS011;3597;42.650;23.386;2023-08-06T05:47:50;5.90;;;5.80;;
7110;SDS011;3597;42.650;23.386;2023-08-06T05:50:15;8.27;;;7.97;;
7110;SDS011;3597;42.650;23.386;2023-08-06T05:52:41;5.67;;;5.37;;
7110;SDS011;3597;42.650;23.386;2023-08-06T05:55:06;19.57;;;18.93;;
7110;SDS011;3597;42.650;23.386;2023-08-06T05:57:32;3.17;;;3.13;;
7110;SDS011;3597;42.650;23.386;2023-08-06T05:59:57;7.53;;;7.43;;
7110;SDS011;3597;42.650;23.386;2023-08-06T06:02:22;13.13;;;12.73;;
7110;SDS011;3597;42.650;23.386;2023-08-06T06:04:48;10.80;;;10.50;;
7110;SDS011;3597;42.650;23.386;2023-08-06T06:07:13;2.20;;;2.20;;
7110;SDS011;3597;42.650;23.386;2023-08-06T06:09:39;2.42;;;2.33;;
7110;SDS011;3597;42.650;23.386;2023-08-06T06:12:05;2.40;;;2.40;;
7110;SDS011;3597;42.650;23.386;2023-08-06T06:14:31;2.20;;;2.10;;
7110;SDS011;3597;42.650;23.386;2023-08-06T06:16:56;2.15;;;2.15;;
7110;SDS011;3597;42.650;23.386;2023-08-06T06:19:21;2.13;;;2.13;;
7110;SDS011;3597;42.650;23.386;2023-08-06T06:21:47;2.30;;;2.30;;
7110;SDS011;3597;42.650;23.386;2023-08-06T06:24:12;2.22;;;2.20;;
7110;SDS011;3597;42.650;23.386;2023-08-06T06:26:38;3.00;;;3.00;;
7110;SDS011;3597;42.650;23.386;2023-08-06T06:29:03;7.03;;;6.87;;
7110;SDS011;3597;42.650;23.386;2023-08-06T06:31:28;4.93;;;4.93;;
7110;SDS011;3597;42.650;23.386;2023-08-06T06:33:54;2.83;;;2.83;;
7110;SDS011;3597;42.650;23.386;2023-08-06T06:36:19;2.17;;;2.17;;
7110;SDS011;3597;42.650;23.386;2023-08-06T06:38:45;2.10;;;2.10;;
7110;SDS011;3597;42.650;23.386;2023-08-06T06:41:11;2.50;;;2.50;;
7110;SDS011;3597;42.650;23.386;2023-08-06T06:43:36;3.03;;;2.93;;
7110;SDS011;3597;42.650;23.386;2023-08-06T06:46:03;3.27;;;3.27;;
7110;SDS011;3597;42.650;23.386;2023-08-06T06:48:29;2.07;;;2.00;;
7110;SDS011;3597;42.650;23.386;2023-08-06T06:50:56;1.63;;;1.63;;
7110;SDS011;3597;42.650;23.386;2023-08-06T06:53:22;1.70;;;1.70;;
7110;SDS011;3597;42.650;23.386;2023-08-06T06:55:54;2.00;;;1.90;;
7110;SDS011;3597;42.650;23.386;2023-08-06T06:58:20;1.90;;;1.90;;
7110;SDS011;3597;42.650;23.386;2023-08-06T07:00:46;2.30;;;2.20;;
7110;SDS011;3597;42.650;23.386;2023-08-06T07:03:12;1.90;;;1.90;;
7110;SDS011;3597;42.650;23.386;2023-08-06T07:05:38;1.70;;;1.70;;
7110;SDS011;3597;42.650;23.386;2023-08-06T07:08:03;1.93;;;1.93;;
7110;SDS011;3597;42.650;23.386;2023-08-06T07:10:28;2.37;;;2.37;;
7110;SDS011;3597;42.650;23.386;2023-08-06T07:12:54;2.00;;;2.00;;
7110;SDS011;3597;42.650;23.386;2023-08-06T07:15:19;1.90;;;1.90;;
7110;SDS011;3597;42.650;23.386;2023-08-06T07:17:45;1.80;;;1.80;;
7110;SDS011;3597;42.650;23.386;2023-08-06T07:20:10;1.87;;;1.87;;
7110;SDS011;3597;42.650;23.386;2023-08-06T07:22:36;1.60;;;1.60;;
7110;SDS011;3597;42.650;23.386;2023-08-06T07:25:01;1.70;;;1.70;;
7110;SDS011;3597;42.650;23.386;2023-08-06T07:27:27;1.50;;;1.50;;
7110;SDS011;3597;42.650;23.386;2023-08-06T07:29:52;1.70;;;1.70;;
7110;SDS011;3597;42.650;23.386;2023-08-06T07:32:17;1.90;;;1.90;;
7110;SDS011;3597;42.650;23.386;2023-08-06T07:34:43;2.83;;;2.83;;
7110;SDS011;3597;42.650;23.386;2023-08-06T07:37:08;5.60;;;5.50;;
7110;SDS011;3597;42.650;23.386;2023-08-06T07:39:33;5.30;;;5.20;;
7110;SDS011;3597;42.650;23.386;2023-08-06T07:41:59;2.53;;;2.53;;
7110;SDS011;3597;42.650;23.386;2023-08-06T07:44:24;2.10;;;2.10;;
7110;SDS011;3597;42.650;23.386;2023-08-06T07:46:49;1.45;;;1.45;;
7110;SDS011;3597;42.650;23.386;2023-08-06T07:49:15;2.00;;;2.00;;
7110;SDS011;3597;42.650;23.386;2023-08-06T07:51:40;1.83;;;1.83;;
7110;SDS011;3597;42.650;23.386;2023-08-06T07:54:06;1.67;;;1.67;;
7110;SDS011;3597;42.650;23.386;2023-08-06T07:56:31;1.50;;;1.50;;
7110;SDS011;3597;42.650;23.386;2023-08-06T07:58:57;1.60;;;1.60;;
7110;SDS011;3597;42.650;23.386;2023-08-06T08:01:22;1.58;;;1.58;;
7110;SDS011;3597;42.650;23.386;2023-08-06T08:03:47;1.70;;;1.70;;
7110;SDS011;3597;42.650;23.386;2023-08-06T08:06:13;1.55;;;1.55;;
7110;SDS011;3597;42.650;23.386;2023-08-06T08:08:38;1.80;;;1.80;;
7110;SDS011;3597;42.650;23.386;2023-08-06T08:11:04;1.48;;;1.48;;
7110;SDS011;3597;42.650;23.386;2023-08-06T08:13:30;1.52;;;1.52;;
7110;SDS011;3597;42.650;23.386;2023-08-06T08:15:58;1.75;;;1.75;;
7110;SDS011;3597;42.650;23.386;2023-08-06T08:18:24;1.70;;;1.70;;
7110;SDS011;3597;42.650;23.386;2023-08-06T08:20:50;1.90;;;1.90;;
7110;SDS011;3597;42.650;23.386;2023-08-06T08:23:15;2.08;;;2.08;;
7110;SDS011;3597;42.650;23.386;2023-08-06T08:25:41;2.13;;;2.13;;
7110;SDS011;3597;42.650;23.386;2023-08-06T08:28:06;2.38;;;2.38;;
7110;SDS011;3597;42.650;23.386;2023-08-06T08:30:32;2.22;;;2.13;;
7110;SDS011;3597;42.650;23.386;2023-08-06T08:32:57;2.47;;;2.38;;
7110;SDS011;3597;42.650;23.386;2023-08-06T08:35:23;1.60;;;1.60;;
7110;SDS011;3597;42.650;23.386;2023-08-06T08:37:48;2.50;;;2.40;;
7110;SDS011;3597;42.650;23.386;2023-08-06T08:40:14;2.28;;;2.28;;
7110;SDS011;3597;42.650;23.386;2023-08-06T08:42:39;3.30;;;3.30;;
7110;SDS011;3597;42.650;23.386;2023-08-06T08:45:06;3.28;;;3.28;;
7110;SDS011;3597;42.650;23.386;2023-08-06T08:47:38;3.60;;;3.40;;
7110;SDS011;3597;42.650;23.386;2023-08-06T08:50:06;3.47;;;3.47;;
7110;SDS011;3597;42.650;23.386;2023-08-06T08:52:32;3.85;;;3.70;;
7110;SDS011;3597;42.650;23.386;2023-08-06T08:54:59;4.25;;;4.15;;
7110;SDS011;3597;42.650;23.386;2023-08-06T08:57:26;4.07;;;4.07;;
7110;SDS011;3597;42.650;23.386;2023-08-06T08:59:51;4.18;;;4.18;;
7110;SDS011;3597;42.650;23.386;2023-08-06T09:02:17;4.45;;;4.38;;
7110;SDS011;3597;42.650;23.386;2023-08-06T09:04:43;4.72;;;4.63;;
7110;SDS011;3597;42.650;23.386;2023-08-06T09:07:10;4.80;;;4.70;;
7110;SDS011;3597;42.650;23.386;2023-08-06T09:09:38;3.70;;;3.70;;
7110;SDS011;3597;42.650;23.386;2023-08-06T09:12:12;3.67;;;3.60;;
7110;SDS011;3597;42.650;23.386;2023-08-06T09:14:39;2.90;;;2.90;;
7110;SDS011;3597;42.650;23.386;2023-08-06T09:17:05;2.70;;;2.60;;
7110;SDS011;3597;42.650;23.386;2023-08-06T09:19:31;2.40;;;2.40;;
7110;SDS011;3597;42.650;23.386;2023-08-06T09:21:56;2.38;;;2.38;;
7110;SDS011;3597;42.650;23.386;2023-08-06T09:24:22;2.70;;;2.70;;
7110;SDS011;3597;42.650;23.386;2023-08-06T09:26:47;2.75;;;2.75;;
7110;SDS011;3597;42.650;23.386;2023-08-06T09:29:13;2.95;;;2.95;;
7110;SDS011;3597;42.650;23.386;2023-08-06T09:34:21;2.80;;;2.80;;
7110;SDS011;3597;42.650;23.386;2023-08-06T09:36:50;2.70;;;2.70;;
7110;SDS011;3597;42.650;23.386;2023-08-06T09:39:20;2.15;;;2.15;;
7110;SDS011;3597;42.650;23.386;2023-08-06T09:41:46;2.30;;;2.30;;
7110;SDS011;3597;42.650;23.386;2023-08-06T09:44:21;2.40;;;2.30;;
7110;SDS011;3597;42.650;23.386;2023-08-06T09:46:49;2.10;;;2.10;;
7110;SDS011;3597;42.650;23.386;2023-08-06T09:49:19;1.60;;;1.60;;
7110;SDS011;3597;42.650;23.386;2023-08-06T09:51:46;1.40;;;1.40;;
7110;SDS011;3597;42.650;23.386;2023-08-06T09:54:13;1.27;;;1.27;;
7110;SDS011;3597;42.650;23.386;2023-08-06T09:56:44;1.20;;;1.20;;
7110;SDS011;3597;42.650;23.386;2023-08-06T09:59:09;1.50;;;1.50;;
7110;SDS011;3597;42.650;23.386;2023-08-06T10:01:36;1.50;;;1.50;;
7110;SDS011;3597;42.650;23.386;2023-08-06T10:04:03;1.48;;;1.48;;
7110;SDS011;3597;42.650;23.386;2023-08-06T10:06:29;1.35;;;1.35;;
7110;SDS011;3597;42.650;23.386;2023-08-06T10:08:55;1.55;;;1.50;;
7110;SDS011;3597;42.650;23.386;2023-08-06T10:11:21;1.30;;;1.30;;
7110;SDS011;3597;42.650;23.386;2023-08-06T10:13:47;1.40;;;1.40;;
7110;SDS011;3597;42.650;23.386;2023-08-06T10:16:13;1.48;;;1.48;;
7110;SDS011;3597;42.650;23.386;2023-08-06T10:18:39;1.20;;;1.20;;
7110;SDS011;3597;42.650;23.386;2023-08-06T10:21:08;1.40;;;1.40;;
7110;SDS011;3597;42.650;23.386;2023-08-06T10:23:34;1.20;;;1.20;;
7110;SDS011;3597;42.650;23.386;2023-08-06T10:26:00;1.15;;;1.15;;
7110;SDS011;3597;42.650;23.386;2023-08-06T10:28:33;1.38;;;1.38;;
7110;SDS011;3597;42.650;23.386;2023-08-06T10:31:02;1.70;;;1.60;;
7110;SDS011;3597;42.650;23.386;2023-08-06T10:33:44;1.67;;;1.67;;
7110;SDS011;3597;42.650;23.386;2023-08-06T10:36:13;1.50;;;1.50;;
7110;SDS011;3597;42.650;23.386;2023-08-06T10:38:49;1.42;;;1.42;;
7110;SDS011;3597;42.650;23.386;2023-08-06T10:41:35;1.50;;;1.50;;
7110;SDS011;3597;42.650;23.386;2023-08-06T10:44:06;1.38;;;1.38;;
7110;SDS011;3597;42.650;23.386;2023-08-06T10:46:35;1.30;;;1.30;;
7110;SDS011;3597;42.650;23.386;2023-08-06T10:49:01;1.27;;;1.27;;
7110;SDS011;3597;42.650;23.386;2023-08-06T10:51:27;1.60;;;1.50;;
7110;SDS011;3597;42.650;23.386;2023-08-06T10:53:52;1.70;;;1.70;;
7110;SDS011;3597;42.650;23.386;2023-08-06T10:56:22;1.60;;;1.60;;
7110;SDS011;3597;42.650;23.386;2023-08-06T10:58:49;1.63;;;1.63;;
7110;SDS011;3597;42.650;23.386;2023-08-06T11:01:15;2.00;;;1.90;;
7110;SDS011;3597;42.650;23.386;2023-08-06T11:03:41;2.23;;;2.20;;
7110;SDS011;3597;42.650;23.386;2023-08-06T11:06:26;1.80;;;1.80;;
7110;SDS011;3597;42.650;23.386;2023-08-06T11:08:53;1.80;;;1.80;;
7110;SDS011;3597;42.650;23.386;2023-08-06T11:11:19;1.90;;;1.90;;
7110;SDS011;3597;42.650;23.386;2023-08-06T11:13:45;1.90;;;1.90;;
7110;SDS011;3597;42.650;23.386;2023-08-06T11:16:33;1.83;;;1.83;;
7110;SDS011;3597;42.650;23.386;2023-08-06T11:18:57;1.80;;;1.80;;
7110;SDS011;3597;42.650;23.386;2023-08-06T11:21:24;1.55;;;1.55;;
7110;SDS011;3597;42.650;23.386;2023-08-06T11:23:50;1.58;;;1.58;;
7110;SDS011;3597;42.650;23.386;2023-08-06T11:26:20;1.38;;;1.38;;
7110;SDS011;3597;42.650;23.386;2023-08-06T11:28:45;1.45;;;1.45;;
7110;SDS011;3597;42.650;23.386;2023-08-06T11:31:20;1.50;;;1.50;;
7110;SDS011;3597;42.650;23.386;2023-08-06T11:33:52;1.40;;;1.40;;
7110;SDS011;3597;42.650;23.386;2023-08-06T11:36:30;1.50;;;1.50;;
7110;SDS011;3597;42.650;23.386;2023-08-06T11:38:57;1.50;;;1.50;;
7110;SDS011;3597;42.650;23.386;2023-08-06T11:41:23;1.80;;;1.80;;
7110;SDS011;3597;42.650;23.386;2023-08-06T11:43:49;1.55;;;1.50;;
7110;SDS011;3597;42.650;23.386;2023-08-06T11:46:14;1.50;;;1.50;;
7110;SDS011;3597;42.650;23.386;2023-08-06T11:48:52;1.92;;;1.83;;
7110;SDS011;3597;42.650;23.386;2023-08-06T11:51:27;1.93;;;1.83;;
7110;SDS011;3597;42.650;23.386;2023-08-06T11:53:56;2.70;;;2.60;;
7110;SDS011;3597;42.650;23.386;2023-08-06T11:56:22;2.77;;;2.67;;
7110;SDS011;3597;42.650;23.386;2023-08-06T11:58:48;2.90;;;2.90;;
7110;SDS011;3597;42.650;23.386;2023-08-06T12:01:13;2.80;;;2.80;;
7110;SDS011;3597;42.650;23.386;2023-08-06T12:03:39;3.13;;;2.93;;
7110;SDS011;3597;42.650;23.386;2023-08-06T12:06:05;3.13;;;3.13;;
7110;SDS011;3597;42.650;23.386;2023-08-06T12:08:30;3.77;;;3.70;;
7110;SDS011;3597;42.650;23.386;2023-08-06T12:10:56;6.90;;;3.10;;
7110;SDS011;3597;42.650;23.386;2023-08-06T12:13:21;2.20;;;2.10;;
7110;SDS011;3597;42.650;23.386;2023-08-06T12:15:46;2.03;;;2.03;;
7110;SDS011;3597;42.650;23.386;2023-08-06T12:18:12;1.67;;;1.67;;
7110;SDS011;3597;42.650;23.386;2023-08-06T12:20:37;1.50;;;1.50;;
7110;SDS011;3597;42.650;23.386;2023-08-06T12:23:03;1.60;;;1.60;;
7110;SDS011;3597;42.650;23.386;2023-08-06T12:25:29;1.58;;;1.58;;
7110;SDS011;3597;42.650;23.386;2023-08-06T12:27:54;1.83;;;1.83;;
7110;SDS011;3597;42.650;23.386;2023-08-06T12:30:20;2.10;;;2.10;;
7110;SDS011;3597;42.650;23.386;2023-08-06T12:32:45;2.03;;;1.92;;
7110;SDS011;3597;42.650;23.386;2023-08-06T12:35:10;1.83;;;1.83;;
7110;SDS011;3597;42.650;23.386;2023-08-06T12:37:36;2.10;;;2.10;;
7110;SDS011;3597;42.650;23.386;2023-08-06T12:40:03;2.00;;;2.00;;
7110;SDS011;3597;42.650;23.386;2023-08-06T12:42:29;1.98;;;1.98;;
7110;SDS011;3597;42.650;23.386;2023-08-06T12:44:54;1.90;;;1.80;;
7110;SDS011;3597;42.650;23.386;2023-08-06T12:47:20;1.80;;;1.80;;
7110;SDS011;3597;42.650;23.386;2023-08-06T12:49:45;1.90;;;1.90;;
7110;SDS011;3597;42.650;23.386;2023-08-06T12:52:14;2.10;;;2.10;;
7110;SDS011;3597;42.650;23.386;2023-08-06T12:54:40;2.30;;;2.30;;
7110;SDS011;3597;42.650;23.386;2023-08-06T12:57:06;2.20;;;2.20;;
7110;SDS011;3597;42.650;23.386;2023-08-06T12:59:31;2.43;;;2.43;;
7110;SDS011;3597;42.650;23.386;2023-08-06T13:02:01;2.47;;;2.43;;
7110;SDS011;3597;42.650;23.386;2023-08-06T13:04:27;2.30;;;2.30;;
7110;SDS011;3597;42.650;23.386;2023-08-06T13:06:52;2.30;;;2.30;;
7110;SDS011;3597;42.650;23.386;2023-08-06T13:09:18;2.60;;;2.60;;
7110;SDS011;3597;42.650;23.386;2023-08-06T13:11:44;2.50;;;2.50;;
7110;SDS011;3597;42.650;23.386;2023-08-06T13:14:11;2.22;;;2.22;;
7110;SDS011;3597;42.650;23.386;2023-08-06T13:16:39;2.20;;;2.20;;
7110;SDS011;3597;42.650;23.386;2023-08-06T13:19:06;2.10;;;2.10;;
7110;SDS011;3597;42.650;23.386;2023-08-06T13:21:32;2.47;;;2.45;;
7110;SDS011;3597;42.650;23.386;2023-08-06T13:23:59;2.40;;;2.40;;
7110;SDS011;3597;42.650;23.386;2023-08-06T13:26:26;2.50;;;2.50;;
7110;SDS011;3597;42.650;23.386;2023-08-06T13:28:51;2.00;;;2.00;;
7110;SDS011;3597;42.650;23.386;2023-08-06T13:31:16;1.90;;;1.90;;
7110;SDS011;3597;42.650;23.386;2023-08-06T13:33:42;2.35;;;2.35;;
7110;SDS011;3597;42.650;23.386;2023-08-06T13:36:07;1.98;;;1.98;;
7110;SDS011;3597;42.650;23.386;2023-08-06T13:38:32;2.00;;;2.00;;
7110;SDS011;3597;42.650;23.386;2023-08-06T13:40:58;2.28;;;2.13;;
7110;SDS011;3597;42.650;23.386;2023-08-06T13:43:24;1.83;;;1.80;;
7110;SDS011;3597;42.650;23.386;2023-08-06T13:45:49;2.30;;;2.30;;
7110;SDS011;3597;42.650;23.386;2023-08-06T13:48:14;2.22;;;2.22;;
7110;SDS011;3597;42.650;23.386;2023-08-06T13:50:40;2.17;;;2.17;;
7110;SDS011;3597;42.650;23.386;2023-08-06T13:53:05;2.05;;;2.05;;
7110;SDS011;3597;42.650;23.386;2023-08-06T13:55:31;2.20;;;2.20;;
7110;SDS011;3597;42.650;23.386;2023-08-06T13:57:57;2.58;;;2.15;;
7110;SDS011;3597;42.650;23.386;2023-08-06T14:00:22;2.00;;;2.00;;
7110;SDS011;3597;42.650;23.386;2023-08-06T14:02:47;2.03;;;1.83;;
7110;SDS011;3597;42.650;23.386;2023-08-06T14:05:13;1.60;;;1.60;;
7110;SDS011;3597;42.650;23.386;2023-08-06T14:07:38;1.70;;;1.70;;
7110;SDS011;3597;42.650;23.386;2023-08-06T14:10:04;1.80;;;1.80;;
7110;SDS011;3597;42.650;23.386;2023-08-06T14:12:30;2.10;;;2.00;;
7110;SDS011;3597;42.650;23.386;2023-08-06T14:14:56;2.00;;;1.90;;
7110;SDS011;3597;42.650;23.386;2023-08-06T14:17:21;1.73;;;1.73;;
7110;SDS011;3597;42.650;23.386;2023-08-06T14:19:49;2.00;;;2.00;;
7110;SDS011;3597;42.650;23.386;2023-08-06T14:22:15;2.20;;;2.20;;
7110;SDS011;3597;42.650;23.386;2023-08-06T14:24:40;1.80;;;1.80;;
7110;SDS011;3597;42.650;23.386;2023-08-06T14:27:06;1.80;;;1.80;;
7110;SDS011;3597;42.650;23.386;2023-08-06T14:29:32;1.90;;;1.90;;
7110;SDS011;3597;42.650;23.386;2023-08-06T14:31:57;2.70;;;2.63;;
7110;SDS011;3597;42.650;23.386;2023-08-06T14:34:23;1.98;;;1.98;;
7110;SDS011;3597;42.650;23.386;2023-08-06T14:36:48;2.08;;;2.08;;
7110;SDS011;3597;42.650;23.386;2023-08-06T14:39:13;1.90;;;1.90;;
7110;SDS011;3597;42.650;23.386;2023-08-06T14:41:39;2.10;;;2.10;;
7110;SDS011;3597;42.650;23.386;2023-08-06T14:44:04;2.15;;;2.05;;
7110;SDS011;3597;42.650;23.386;2023-08-06T14:46:29;2.30;;;2.20;;
7110;SDS011;3597;42.650;23.386;2023-08-06T14:48:55;2.30;;;2.30;;
7110;SDS011;3597;42.650;23.386;2023-08-06T14:51:20;1.77;;;1.77;;
7110;SDS011;3597;42.650;23.386;2023-08-06T14:53:46;1.90;;;1.90;;
7110;SDS011;3597;42.650;23.386;2023-08-06T14:56:11;1.73;;;1.73;;
7110;SDS011;3597;42.650;23.386;2023-08-06T14:58:36;2.33;;;2.22;;
7110;SDS011;3597;42.650;23.386;2023-08-06T15:01:02;1.90;;;1.90;;
7110;SDS011;3597;42.650;23.386;2023-08-06T15:03:27;1.95;;;1.75;;